Milton, Utah
Current Conditions -  °F | °C
As of 9:58 PM on Thursday 30 Oct 2014 (Local Time) from KHIF Reporting Station
Clear Clear  
Wind Chill: 55°   Ceiling: Unl
Heat Index: 55°   Visibility: 10mi
Dew Point: 35°   Wind: 10mph
Humidity: 48%   Direction: 150°SSE
Pressure: 30.11"   Gusts: NA
Location:  41.0884°N, 111.576°W
Report Text: KHIF 310358Z AUTO 15009KT 10SM CLR 13/02 A3011 RMK AO2 SLP170 T01260018
Loading
Personal Weather Stations






























Interactive Weather Map
Tropical Storm Tracking
New forecast layout! Learn more

10-Day Weather Forecast

Advertisements
Track Severe Weather on mobile